Portada
METAR-TAF:

METAR-TAF

Aeroports :

Shimojishima, Japó

latitud: 24-50N, longitud: 125-09E, altitud: 16 m

Observació

L'informe es va fer fa 28 minuts, a les 02:00 UTC
Vent 12 kt del Sud, variant entre Sud/Sud-Est i Sud-Oest
Temperatura 30°C
Humitat 89%
Pressió 1009 hPa
Visibilitat 10 km o més
Escasses núvols a una alçada de 1700 ft
Cel ennuvolat a una alçada de 4700 ft
Cel ennuvolat a una alçada de 15000 ft
xàfecs en les proximitats

METAR: RORS 100200Z 19012KT 160V220 9999 VCSH FEW017 BKN047 BKN150 30/28 Q1009

Hora: 11:28 (02:28 UTC)


TAF: manca

Observacions i pronòstics meteorològics de més de 4000 aeroports (METAR i TAF).

Les estacions disponibles són els punts grocs i vermells al mapa.

Posi el ratolí al punt desitjat per veure el nom de l'estació.

Feu clic per veure les observacions i els pronòstics meteorològics.

Per canviar el mapa: feu clic els botons verds amb una creu de color negre per apropar; al botó verd amb un guió per allunyar la imatge; o en les fletxes verdes per a mapes adjacents.


METAR-TAF: